Barrington, IL (60011)

5:26 AM CDT on October 24, 2014 (GMT -0500)
Public Works Building | Change Station
CLOSE
Current Station
Personal Weather Station
Location: Cary, IL
Elevation: 755 ft
Nearby Weather Stations

Elev 755 ft 42.20 °N, 88.24 °W | Updated 9 minutes ago

Mostly Cloudy
Mostly Cloudy
47.2 °F
Feels Like 47 °F
N
1.0
Wind Variable Wind from ESE
Gusts 2.0 mph

Today
High -- | Low -- °F
--% Chance of Precip.
Yesterday
High -- | Low -- °F
Precip. -- in
7:16 AM 5:57 PM
New Moon, 0% visible
Pressure 30.07 in
Visibility 10.0 miles
Clouds Few 3400 ft
Windchill 47 °F
Dew Point 45 °F
Humidity 93%
Rainfall 0.00 in
Snow Depth Not available.
UV 0 out of 12
Pollen .30 out of 12
Air Quality Not available.
Flu Activity Not available.
METAR KPWK 240952Z AUTO 00000KT 10SM FEW034 09/06 A3007 RMK AO2 SLP182 T00940061

More Conditions Fewer Conditions

Pressure 30.07 in
Visibility 10.0 miles
Clouds Few 3400 ft
Windchill 47 °F
Dew Point 45 °F
Humidity 93%
Rainfall 0.00 in
Snow Depth Not available.
UV 0 out of 12
Pollen .30 out of 12
Air Quality Not available.
Flu Activity Not available.
METAR KPWK 240952Z AUTO 00000KT 10SM FEW034 09/06 A3007 RMK AO2 SLP182 T00940061

More Conditions Fewer Conditions

10-Day Weather Forecast

Almanac

Astronomy

Oct. 24, 2014 Rise Set
Actual Time 7:16 AM CDT 5:57 PM CDT
Civil Twilight 6:47 AM CDT 6:25 PM CDT
Nautical Twilight 6:14 AM CDT 6:58 PM CDT
Astronomical Twilight 5:42 AM CDT 7:31 PM CDT
Moon 7:55 AM CDT 6:36 PM CDT
Length of Visible Light 11h 38m
Length of Day
10h 41m
Tomorrow will be 2m 38s shorter.
New Moon, 0% of the Moon is Illuminated
Today
New Moon
Oct 30
First Quarter
Nov 6
Full
Nov 14
Last Quarter
Nov 22
New

Today's Extremes

State Highs State Lows

Community

WunderPhotos

Upload Photos

1,764,513 photos uploaded!

WunderBlogs® & News

Nearby

Snow Depth

Station Depth Elevation
No new snow has been reported.

Earthquake Activity

City Distance Mag. Time & Date
No recent earthquake activity has been reported nearby.
Minimum magnitude displayed is 2.5.

Coastal Water Temperatures

Place Temperature
No Stations Reporting

Nearby Weather Stations